Evansville, Indiana
Current Conditions -  °F | °C
As of 8:54 PM on Monday 20 Oct 2014 (Local Time) from KEVV Reporting Station
Clear Clear  
Wind Chill: 62°   Ceiling: Unl
Heat Index: 62°   Visibility: 10mi
Dew Point: 44°   Wind: 6mph
Humidity: 52%   Direction: 310°NW
Pressure: 29.97"   Gusts: NA
Location:  37.98°N, 87.56°W
Report Text: KEVV 210154Z 31005KT 10SM CLR 17/07 A2997 RMK AO2 SLP147 T01670067
Loading
Personal Weather Stations






























Interactive Weather Map
Tropical Storm Tracking
New forecast layout! Learn more

10-Day Weather Forecast

Advertisements
Track Severe Weather on mobile